sensor_id;sensor_type;location;lat;lon;timestamp;P1;durP1;ratioP1;P2;durP2;ratioP2
71366;SDS011;60030;52.274;8.040;2023-04-22T00:00:57;6.63;;;5.07;;
71366;SDS011;60030;52.274;8.040;2023-04-22T00:03:25;7.03;;;4.70;;
71366;SDS011;60030;52.274;8.040;2023-04-22T00:05:52;7.43;;;5.17;;
71366;SDS011;60030;52.274;8.040;2023-04-22T00:08:21;6.20;;;5.17;;
71366;SDS011;60030;52.274;8.040;2023-04-22T00:10:48;8.03;;;5.37;;
71366;SDS011;60030;52.274;8.040;2023-04-22T00:13:15;7.60;;;5.00;;
71366;SDS011;60030;52.274;8.040;2023-04-22T00:15:42;7.10;;;5.57;;
71366;SDS011;60030;52.274;8.040;2023-04-22T00:18:09;7.40;;;5.03;;
71366;SDS011;60030;52.274;8.040;2023-04-22T00:20:38;6.23;;;5.27;;
71366;SDS011;60030;52.274;8.040;2023-04-22T00:23:07;9.77;;;5.23;;
71366;SDS011;60030;52.274;8.040;2023-04-22T00:25:36;9.70;;;5.73;;
71366;SDS011;60030;52.274;8.040;2023-04-22T00:28:04;6.80;;;5.13;;
71366;SDS011;60030;52.274;8.040;2023-04-22T00:30:31;7.47;;;5.60;;
71366;SDS011;60030;52.274;8.040;2023-04-22T00:32:58;8.13;;;5.17;;
71366;SDS011;60030;52.274;8.040;2023-04-22T00:35:26;7.73;;;5.40;;
71366;SDS011;60030;52.274;8.040;2023-04-22T00:37:53;8.07;;;4.97;;
71366;SDS011;60030;52.274;8.040;2023-04-22T00:40:20;8.37;;;5.67;;
71366;SDS011;60030;52.274;8.040;2023-04-22T00:42:49;9.07;;;5.27;;
71366;SDS011;60030;52.274;8.040;2023-04-22T00:45:17;9.60;;;6.03;;
71366;SDS011;60030;52.274;8.040;2023-04-22T00:47:45;8.73;;;6.10;;
71366;SDS011;60030;52.274;8.040;2023-04-22T00:50:13;7.80;;;5.83;;
71366;SDS011;60030;52.274;8.040;2023-04-22T00:52:40;10.13;;;6.43;;
71366;SDS011;60030;52.274;8.040;2023-04-22T00:55:07;6.97;;;5.13;;
71366;SDS011;60030;52.274;8.040;2023-04-22T00:57:35;11.93;;;5.20;;
71366;SDS011;60030;52.274;8.040;2023-04-22T01:00:05;5.43;;;4.73;;
71366;SDS011;60030;52.274;8.040;2023-04-22T01:02:34;8.20;;;5.07;;
71366;SDS011;60030;52.274;8.040;2023-04-22T01:05:02;8.03;;;5.43;;
71366;SDS011;60030;52.274;8.040;2023-04-22T01:07:30;9.77;;;5.50;;
71366;SDS011;60030;52.274;8.040;2023-04-22T01:09:57;8.17;;;5.77;;
71366;SDS011;60030;52.274;8.040;2023-04-22T01:12:25;8.77;;;6.17;;
71366;SDS011;60030;52.274;8.040;2023-04-22T01:14:52;10.03;;;5.60;;
71366;SDS011;60030;52.274;8.040;2023-04-22T01:17:21;7.83;;;5.70;;
71366;SDS011;60030;52.274;8.040;2023-04-22T01:19:48;7.90;;;5.40;;
71366;SDS011;60030;52.274;8.040;2023-04-22T01:22:17;8.83;;;5.90;;
71366;SDS011;60030;52.274;8.040;2023-04-22T01:24:46;8.53;;;5.30;;
71366;SDS011;60030;52.274;8.040;2023-04-22T01:27:14;11.67;;;5.50;;
71366;SDS011;60030;52.274;8.040;2023-04-22T01:29:41;6.87;;;5.53;;
71366;SDS011;60030;52.274;8.040;2023-04-22T01:32:08;7.97;;;5.47;;
71366;SDS011;60030;52.274;8.040;2023-04-22T01:34:36;8.87;;;6.20;;
71366;SDS011;60030;52.274;8.040;2023-04-22T01:37:03;8.73;;;5.63;;
71366;SDS011;60030;52.274;8.040;2023-04-22T01:39:31;8.97;;;5.93;;
71366;SDS011;60030;52.274;8.040;2023-04-22T01:42:00;6.80;;;6.10;;
71366;SDS011;60030;52.274;8.040;2023-04-22T01:44:28;8.00;;;6.00;;
71366;SDS011;60030;52.274;8.040;2023-04-22T01:46:55;10.47;;;6.80;;
71366;SDS011;60030;52.274;8.040;2023-04-22T01:49:22;11.37;;;6.70;;
71366;SDS011;60030;52.274;8.040;2023-04-22T01:51:49;10.67;;;6.43;;
71366;SDS011;60030;52.274;8.040;2023-04-22T01:54:18;9.73;;;6.30;;
71366;SDS011;60030;52.274;8.040;2023-04-22T01:56:49;8.40;;;6.10;;
71366;SDS011;60030;52.274;8.040;2023-04-22T01:59:19;8.47;;;6.13;;
71366;SDS011;60030;52.274;8.040;2023-04-22T02:01:46;8.00;;;6.03;;
71366;SDS011;60030;52.274;8.040;2023-04-22T02:04:13;10.27;;;6.00;;
71366;SDS011;60030;52.274;8.040;2023-04-22T02:06:40;7.20;;;5.70;;
71366;SDS011;60030;52.274;8.040;2023-04-22T02:09:07;9.40;;;5.90;;
71366;SDS011;60030;52.274;8.040;2023-04-22T02:11:34;8.77;;;5.83;;
71366;SDS011;60030;52.274;8.040;2023-04-22T02:14:01;8.83;;;5.80;;
71366;SDS011;60030;52.274;8.040;2023-04-22T02:16:30;6.80;;;5.67;;
71366;SDS011;60030;52.274;8.040;2023-04-22T02:18:57;8.13;;;5.40;;
71366;SDS011;60030;52.274;8.040;2023-04-22T02:21:24;10.13;;;5.67;;
71366;SDS011;60030;52.274;8.040;2023-04-22T02:23:51;10.00;;;6.17;;
71366;SDS011;60030;52.274;8.040;2023-04-22T02:26:18;8.33;;;5.53;;
71366;SDS011;60030;52.274;8.040;2023-04-22T02:28:45;9.60;;;6.23;;
71366;SDS011;60030;52.274;8.040;2023-04-22T02:31:12;8.07;;;5.90;;
71366;SDS011;60030;52.274;8.040;2023-04-22T02:33:41;7.33;;;5.73;;
71366;SDS011;60030;52.274;8.040;2023-04-22T02:36:08;8.53;;;5.70;;
71366;SDS011;60030;52.274;8.040;2023-04-22T02:38:36;9.20;;;5.23;;
71366;SDS011;60030;52.274;8.040;2023-04-22T02:41:03;8.27;;;5.57;;
71366;SDS011;60030;52.274;8.040;2023-04-22T02:43:30;9.23;;;6.00;;
71366;SDS011;60030;52.274;8.040;2023-04-22T02:45:57;6.47;;;5.50;;
71366;SDS011;60030;52.274;8.040;2023-04-22T02:48:25;7.67;;;5.50;;
71366;SDS011;60030;52.274;8.040;2023-04-22T02:50:53;14.33;;;6.50;;
71366;SDS011;60030;52.274;8.040;2023-04-22T02:53:20;8.40;;;5.80;;
71366;SDS011;60030;52.274;8.040;2023-04-22T02:55:47;8.17;;;5.60;;
71366;SDS011;60030;52.274;8.040;2023-04-22T02:58:16;8.30;;;5.90;;
71366;SDS011;60030;52.274;8.040;2023-04-22T03:00:43;8.07;;;6.03;;
71366;SDS011;60030;52.274;8.040;2023-04-22T03:03:11;7.00;;;5.97;;
71366;SDS011;60030;52.274;8.040;2023-04-22T03:05:39;8.63;;;5.90;;
71366;SDS011;60030;52.274;8.040;2023-04-22T03:08:07;8.13;;;5.57;;
71366;SDS011;60030;52.274;8.040;2023-04-22T03:10:35;6.23;;;5.40;;
71366;SDS011;60030;52.274;8.040;2023-04-22T03:13:02;9.27;;;5.87;;
71366;SDS011;60030;52.274;8.040;2023-04-22T03:15:29;7.10;;;5.60;;
71366;SDS011;60030;52.274;8.040;2023-04-22T03:17:56;9.27;;;6.03;;
71366;SDS011;60030;52.274;8.040;2023-04-22T03:20:24;12.33;;;5.70;;
71366;SDS011;60030;52.274;8.040;2023-04-22T03:22:52;7.77;;;6.00;;
71366;SDS011;60030;52.274;8.040;2023-04-22T03:25:21;9.50;;;5.63;;
71366;SDS011;60030;52.274;8.040;2023-04-22T03:27:51;6.93;;;5.70;;
71366;SDS011;60030;52.274;8.040;2023-04-22T03:30:18;8.13;;;5.67;;
71366;SDS011;60030;52.274;8.040;2023-04-22T03:32:46;8.80;;;6.67;;
71366;SDS011;60030;52.274;8.040;2023-04-22T03:35:43;8.73;;;5.83;;
71366;SDS011;60030;52.274;8.040;2023-04-22T03:38:12;10.30;;;5.83;;
71366;SDS011;60030;52.274;8.040;2023-04-22T03:40:41;9.00;;;5.47;;
71366;SDS011;60030;52.274;8.040;2023-04-22T03:43:18;8.60;;;5.63;;
71366;SDS011;60030;52.274;8.040;2023-04-22T03:45:55;8.60;;;5.80;;
71366;SDS011;60030;52.274;8.040;2023-04-22T03:48:25;10.03;;;5.90;;
71366;SDS011;60030;52.274;8.040;2023-04-22T03:50:54;7.00;;;5.90;;
71366;SDS011;60030;52.274;8.040;2023-04-22T03:53:23;7.40;;;5.40;;
71366;SDS011;60030;52.274;8.040;2023-04-22T03:55:52;8.50;;;5.47;;
71366;SDS011;60030;52.274;8.040;2023-04-22T03:58:19;9.67;;;5.27;;
71366;SDS011;60030;52.274;8.040;2023-04-22T04:00:48;6.27;;;5.17;;
71366;SDS011;60030;52.274;8.040;2023-04-22T04:03:17;10.27;;;5.50;;
71366;SDS011;60030;52.274;8.040;2023-04-22T04:05:47;6.83;;;5.67;;
71366;SDS011;60030;52.274;8.040;2023-04-22T04:08:14;7.20;;;5.17;;
71366;SDS011;60030;52.274;8.040;2023-04-22T04:10:42;7.37;;;5.83;;
71366;SDS011;60030;52.274;8.040;2023-04-22T04:13:10;6.07;;;5.30;;
71366;SDS011;60030;52.274;8.040;2023-04-22T04:15:51;7.50;;;5.47;;
71366;SDS011;60030;52.274;8.040;2023-04-22T04:18:19;7.90;;;5.97;;
71366;SDS011;60030;52.274;8.040;2023-04-22T04:20:47;8.10;;;5.20;;
71366;SDS011;60030;52.274;8.040;2023-04-22T04:23:14;9.43;;;5.57;;
71366;SDS011;60030;52.274;8.040;2023-04-22T04:25:42;6.73;;;5.17;;
71366;SDS011;60030;52.274;8.040;2023-04-22T04:28:13;9.40;;;5.43;;
71366;SDS011;60030;52.274;8.040;2023-04-22T04:30:42;8.13;;;5.67;;
71366;SDS011;60030;52.274;8.040;2023-04-22T04:33:09;7.17;;;5.17;;
71366;SDS011;60030;52.274;8.040;2023-04-22T04:35:38;7.03;;;5.87;;
71366;SDS011;60030;52.274;8.040;2023-04-22T04:38:08;7.37;;;5.50;;
71366;SDS011;60030;52.274;8.040;2023-04-22T04:40:36;13.77;;;6.70;;
71366;SDS011;60030;52.274;8.040;2023-04-22T04:43:10;6.87;;;5.60;;
71366;SDS011;60030;52.274;8.040;2023-04-22T04:45:49;8.17;;;5.50;;
71366;SDS011;60030;52.274;8.040;2023-04-22T04:48:24;9.80;;;5.70;;
71366;SDS011;60030;52.274;8.040;2023-04-22T04:50:55;7.63;;;5.60;;
71366;SDS011;60030;52.274;8.040;2023-04-22T04:53:25;10.07;;;5.67;;
71366;SDS011;60030;52.274;8.040;2023-04-22T04:55:54;8.80;;;5.83;;
71366;SDS011;60030;52.274;8.040;2023-04-22T04:58:25;10.43;;;6.20;;
71366;SDS011;60030;52.274;8.040;2023-04-22T05:01:10;6.93;;;5.73;;
71366;SDS011;60030;52.274;8.040;2023-04-22T05:03:37;8.27;;;6.03;;
71366;SDS011;60030;52.274;8.040;2023-04-22T05:06:04;7.97;;;5.47;;
71366;SDS011;60030;52.274;8.040;2023-04-22T05:08:34;6.70;;;5.97;;
71366;SDS011;60030;52.274;8.040;2023-04-22T05:11:06;9.07;;;5.40;;
71366;SDS011;60030;52.274;8.040;2023-04-22T05:13:35;6.30;;;5.50;;
71366;SDS011;60030;52.274;8.040;2023-04-22T05:16:02;6.43;;;5.60;;
71366;SDS011;60030;52.274;8.040;2023-04-22T05:18:30;7.63;;;6.40;;
71366;SDS011;60030;52.274;8.040;2023-04-22T05:20:59;8.93;;;6.00;;
71366;SDS011;60030;52.274;8.040;2023-04-22T05:23:29;8.33;;;5.13;;
71366;SDS011;60030;52.274;8.040;2023-04-22T05:25:57;8.00;;;5.53;;
71366;SDS011;60030;52.274;8.040;2023-04-22T05:28:25;8.57;;;6.20;;
71366;SDS011;60030;52.274;8.040;2023-04-22T05:30:56;6.90;;;5.90;;
71366;SDS011;60030;52.274;8.040;2023-04-22T05:33:26;8.07;;;6.13;;
71366;SDS011;60030;52.274;8.040;2023-04-22T05:35:54;9.83;;;6.00;;
71366;SDS011;60030;52.274;8.040;2023-04-22T05:38:22;7.40;;;6.00;;
71366;SDS011;60030;52.274;8.040;2023-04-22T05:40:49;10.70;;;6.47;;
71366;SDS011;60030;52.274;8.040;2023-04-22T05:43:17;8.23;;;6.27;;
71366;SDS011;60030;52.274;8.040;2023-04-22T05:45:51;8.30;;;5.83;;
71366;SDS011;60030;52.274;8.040;2023-04-22T05:48:21;6.73;;;5.90;;
71366;SDS011;60030;52.274;8.040;2023-04-22T05:51:01;11.03;;;7.30;;
71366;SDS011;60030;52.274;8.040;2023-04-22T05:53:29;11.10;;;7.63;;
71366;SDS011;60030;52.274;8.040;2023-04-22T05:55:58;10.87;;;8.00;;
71366;SDS011;60030;52.274;8.040;2023-04-22T05:58:25;11.23;;;7.27;;
71366;SDS011;60030;52.274;8.040;2023-04-22T06:00:54;19.07;;;13.40;;
71366;SDS011;60030;52.274;8.040;2023-04-22T06:03:41;16.70;;;12.63;;
71366;SDS011;60030;52.274;8.040;2023-04-22T06:06:08;12.60;;;8.90;;
71366;SDS011;60030;52.274;8.040;2023-04-22T06:08:35;10.27;;;7.50;;
71366;SDS011;60030;52.274;8.040;2023-04-22T06:11:02;11.57;;;8.00;;
71366;SDS011;60030;52.274;8.040;2023-04-22T06:13:33;10.60;;;7.97;;
71366;SDS011;60030;52.274;8.040;2023-04-22T06:16:00;8.47;;;6.93;;
71366;SDS011;60030;52.274;8.040;2023-04-22T06:18:29;7.93;;;7.03;;
71366;SDS011;60030;52.274;8.040;2023-04-22T06:20:59;11.00;;;6.90;;
71366;SDS011;60030;52.274;8.040;2023-04-22T06:23:26;15.07;;;10.57;;
71366;SDS011;60030;52.274;8.040;2023-04-22T06:25:54;12.27;;;7.27;;
71366;SDS011;60030;52.274;8.040;2023-04-22T06:28:22;15.20;;;7.20;;
71366;SDS011;60030;52.274;8.040;2023-04-22T06:30:53;10.10;;;7.73;;
71366;SDS011;60030;52.274;8.040;2023-04-22T06:33:20;7.70;;;6.30;;
71366;SDS011;60030;52.274;8.040;2023-04-22T06:35:48;8.37;;;6.13;;
71366;SDS011;60030;52.274;8.040;2023-04-22T06:38:17;10.00;;;6.03;;
71366;SDS011;60030;52.274;8.040;2023-04-22T06:41:04;9.73;;;6.23;;
71366;SDS011;60030;52.274;8.040;2023-04-22T06:43:36;7.30;;;6.40;;
71366;SDS011;60030;52.274;8.040;2023-04-22T06:46:06;8.73;;;5.80;;
71366;SDS011;60030;52.274;8.040;2023-04-22T06:48:42;8.43;;;6.07;;
71366;SDS011;60030;52.274;8.040;2023-04-22T06:51:24;9.83;;;5.77;;
71366;SDS011;60030;52.274;8.040;2023-04-22T06:53:53;11.90;;;6.27;;
71366;SDS011;60030;52.274;8.040;2023-04-22T06:56:22;6.87;;;6.00;;
71366;SDS011;60030;52.274;8.040;2023-04-22T06:58:50;8.83;;;6.03;;
71366;SDS011;60030;52.274;8.040;2023-04-22T07:01:17;8.63;;;6.10;;
71366;SDS011;60030;52.274;8.040;2023-04-22T07:03:45;9.63;;;6.17;;
71366;SDS011;60030;52.274;8.040;2023-04-22T07:06:13;9.47;;;6.00;;
71366;SDS011;60030;52.274;8.040;2023-04-22T07:08:41;8.03;;;6.10;;
71366;SDS011;60030;52.274;8.040;2023-04-22T07:11:09;8.07;;;5.77;;
71366;SDS011;60030;52.274;8.040;2023-04-22T07:13:40;7.23;;;5.77;;
71366;SDS011;60030;52.274;8.040;2023-04-22T07:16:07;8.60;;;6.40;;
71366;SDS011;60030;52.274;8.040;2023-04-22T07:18:35;7.40;;;6.43;;
71366;SDS011;60030;52.274;8.040;2023-04-22T07:21:03;8.47;;;6.20;;
71366;SDS011;60030;52.274;8.040;2023-04-22T07:23:30;13.10;;;7.67;;
71366;SDS011;60030;52.274;8.040;2023-04-22T07:25:57;8.03;;;6.13;;
71366;SDS011;60030;52.274;8.040;2023-04-22T07:28:25;7.17;;;5.80;;
71366;SDS011;60030;52.274;8.040;2023-04-22T07:30:52;7.43;;;6.10;;
71366;SDS011;60030;52.274;8.040;2023-04-22T07:33:19;8.27;;;6.80;;
71366;SDS011;60030;52.274;8.040;2023-04-22T07:35:46;8.50;;;6.10;;
71366;SDS011;60030;52.274;8.040;2023-04-22T07:38:14;8.90;;;5.53;;
71366;SDS011;60030;52.274;8.040;2023-04-22T07:40:41;7.80;;;5.97;;
71366;SDS011;60030;52.274;8.040;2023-04-22T07:43:09;7.23;;;6.17;;
71366;SDS011;60030;52.274;8.040;2023-04-22T07:45:37;7.83;;;5.27;;
71366;SDS011;60030;52.274;8.040;2023-04-22T07:48:04;8.77;;;6.13;;
71366;SDS011;60030;52.274;8.040;2023-04-22T07:50:31;9.10;;;5.63;;
71366;SDS011;60030;52.274;8.040;2023-04-22T07:52:58;9.00;;;6.17;;
71366;SDS011;60030;52.274;8.040;2023-04-22T07:55:25;8.67;;;5.70;;
71366;SDS011;60030;52.274;8.040;2023-04-22T07:57:52;6.77;;;4.93;;
71366;SDS011;60030;52.274;8.040;2023-04-22T08:00:20;5.30;;;4.53;;
71366;SDS011;60030;52.274;8.040;2023-04-22T08:02:48;5.77;;;4.40;;
71366;SDS011;60030;52.274;8.040;2023-04-22T08:05:15;4.60;;;3.93;;
71366;SDS011;60030;52.274;8.040;2023-04-22T08:07:42;4.27;;;3.87;;
71366;SDS011;60030;52.274;8.040;2023-04-22T08:10:09;6.17;;;4.20;;
71366;SDS011;60030;52.274;8.040;2023-04-22T08:12:36;5.87;;;4.40;;
71366;SDS011;60030;52.274;8.040;2023-04-22T08:15:04;5.13;;;4.10;;
71366;SDS011;60030;52.274;8.040;2023-04-22T08:17:32;5.90;;;4.57;;
71366;SDS011;60030;52.274;8.040;2023-04-22T08:20:00;5.83;;;3.90;;
71366;SDS011;60030;52.274;8.040;2023-04-22T08:22:28;4.43;;;4.00;;
71366;SDS011;60030;52.274;8.040;2023-04-22T08:24:56;5.97;;;4.03;;
71366;SDS011;60030;52.274;8.040;2023-04-22T08:27:23;6.17;;;3.93;;
71366;SDS011;60030;52.274;8.040;2023-04-22T08:29:50;4.27;;;3.70;;
71366;SDS011;60030;52.274;8.040;2023-04-22T08:32:17;5.83;;;4.07;;
71366;SDS011;60030;52.274;8.040;2023-04-22T08:34:44;8.40;;;4.00;;
71366;SDS011;60030;52.274;8.040;2023-04-22T08:37:12;5.43;;;3.80;;
71366;SDS011;60030;52.274;8.040;2023-04-22T08:39:40;5.43;;;4.17;;
71366;SDS011;60030;52.274;8.040;2023-04-22T08:42:07;11.67;;;5.20;;
71366;SDS011;60030;52.274;8.040;2023-04-22T08:44:35;8.43;;;4.10;;
71366;SDS011;60030;52.274;8.040;2023-04-22T08:47:04;8.13;;;3.23;;
71366;SDS011;60030;52.274;8.040;2023-04-22T08:49:31;8.33;;;3.67;;
71366;SDS011;60030;52.274;8.040;2023-04-22T08:52:01;6.27;;;3.57;;
71366;SDS011;60030;52.274;8.040;2023-04-22T08:54:29;3.70;;;3.27;;
71366;SDS011;60030;52.274;8.040;2023-04-22T08:56:57;4.53;;;3.40;;
71366;SDS011;60030;52.274;8.040;2023-04-22T08:59:26;4.50;;;3.00;;
71366;SDS011;60030;52.274;8.040;2023-04-22T09:01:54;4.60;;;3.13;;
71366;SDS011;60030;52.274;8.040;2023-04-22T09:04:22;6.27;;;2.83;;
71366;SDS011;60030;52.274;8.040;2023-04-22T09:06:49;5.40;;;3.78;;
71366;SDS011;60030;52.274;8.040;2023-04-22T09:09:17;3.73;;;3.30;;
71366;SDS011;60030;52.274;8.040;2023-04-22T09:11:46;6.27;;;3.20;;
71366;SDS011;60030;52.274;8.040;2023-04-22T09:14:13;3.97;;;2.60;;
71366;SDS011;60030;52.274;8.040;2023-04-22T09:16:45;3.75;;;2.40;;
71366;SDS011;60030;52.274;8.040;2023-04-22T09:19:13;3.13;;;2.30;;
71366;SDS011;60030;52.274;8.040;2023-04-22T09:21:40;3.40;;;2.60;;
71366;SDS011;60030;52.274;8.040;2023-04-22T09:24:08;2.80;;;2.50;;
71366;SDS011;60030;52.274;8.040;2023-04-22T09:26:37;2.65;;;2.40;;
71366;SDS011;60030;52.274;8.040;2023-04-22T09:29:08;4.63;;;2.30;;
71366;SDS011;60030;52.274;8.040;2023-04-22T09:31:39;4.00;;;2.10;;
71366;SDS011;60030;52.274;8.040;2023-04-22T09:34:06;2.65;;;2.25;;
71366;SDS011;60030;52.274;8.040;2023-04-22T09:36:33;3.33;;;2.30;;
71366;SDS011;60030;52.274;8.040;2023-04-22T09:39:02;3.17;;;2.17;;
71366;SDS011;60030;52.274;8.040;2023-04-22T09:41:32;2.72;;;2.30;;
71366;SDS011;60030;52.274;8.040;2023-04-22T09:44:00;4.65;;;2.40;;
71366;SDS011;60030;52.274;8.040;2023-04-22T09:46:33;3.58;;;2.40;;
71366;SDS011;60030;52.274;8.040;2023-04-22T09:49:01;3.17;;;2.45;;
71366;SDS011;60030;52.274;8.040;2023-04-22T09:51:28;2.80;;;2.50;;
71366;SDS011;60030;52.274;8.040;2023-04-22T09:53:56;2.45;;;2.20;;
71366;SDS011;60030;52.274;8.040;2023-04-22T09:56:38;2.65;;;2.00;;
71366;SDS011;60030;52.274;8.040;2023-04-22T09:59:09;3.03;;;2.30;;
71366;SDS011;60030;52.274;8.040;2023-04-22T10:01:38;3.00;;;2.58;;
71366;SDS011;60030;52.274;8.040;2023-04-22T10:04:06;2.75;;;2.53;;
71366;SDS011;60030;52.274;8.040;2023-04-22T10:06:34;3.55;;;2.45;;
71366;SDS011;60030;52.274;8.040;2023-04-22T10:09:01;4.63;;;3.35;;
71366;SDS011;60030;52.274;8.040;2023-04-22T10:11:29;4.25;;;2.92;;
71366;SDS011;60030;52.274;8.040;2023-04-22T10:13:56;4.93;;;3.20;;
71366;SDS011;60030;52.274;8.040;2023-04-22T10:16:25;4.90;;;2.38;;
71366;SDS011;60030;52.274;8.040;2023-04-22T10:18:55;4.10;;;2.95;;
71366;SDS011;60030;52.274;8.040;2023-04-22T10:21:24;4.38;;;2.65;;
71366;SDS011;60030;52.274;8.040;2023-04-22T10:23:52;7.63;;;2.70;;
71366;SDS011;60030;52.274;8.040;2023-04-22T10:26:38;2.63;;;2.33;;
71366;SDS011;60030;52.274;8.040;2023-04-22T10:29:07;3.33;;;2.60;;
71366;SDS011;60030;52.274;8.040;2023-04-22T10:31:36;3.72;;;2.67;;
71366;SDS011;60030;52.274;8.040;2023-04-22T10:34:12;3.00;;;2.70;;
71366;SDS011;60030;52.274;8.040;2023-04-22T10:36:51;6.50;;;3.03;;
71366;SDS011;60030;52.274;8.040;2023-04-22T10:39:19;3.47;;;3.13;;
71366;SDS011;60030;52.274;8.040;2023-04-22T10:41:51;2.83;;;2.53;;
71366;SDS011;60030;52.274;8.040;2023-04-22T10:44:19;4.70;;;2.75;;
71366;SDS011;60030;52.274;8.040;2023-04-22T10:46:57;2.40;;;2.20;;
71366;SDS011;60030;52.274;8.040;2023-04-22T10:49:28;3.88;;;2.85;;
71366;SDS011;60030;52.274;8.040;2023-04-22T10:51:56;3.45;;;2.67;;
71366;SDS011;60030;52.274;8.040;2023-04-22T10:57:31;3.88;;;2.50;;
71366;SDS011;60030;52.274;8.040;2023-04-22T11:03:08;2.97;;;2.47;;
71366;SDS011;60030;52.274;8.040;2023-04-22T11:05:38;3.58;;;2.28;;
71366;SDS011;60030;52.274;8.040;2023-04-22T11:08:07;5.45;;;2.30;;
71366;SDS011;60030;52.274;8.040;2023-04-22T11:10:39;4.85;;;2.30;;
71366;SDS011;60030;52.274;8.040;2023-04-22T11:13:08;2.78;;;2.38;;
71366;SDS011;60030;52.274;8.040;2023-04-22T11:15:37;2.83;;;2.25;;
71366;SDS011;60030;52.274;8.040;2023-04-22T11:18:07;4.43;;;2.50;;
71366;SDS011;60030;52.274;8.040;2023-04-22T11:20:40;3.17;;;2.00;;
71366;SDS011;60030;52.274;8.040;2023-04-22T11:23:07;2.50;;;2.30;;
71366;SDS011;60030;52.274;8.040;2023-04-22T11:25:35;3.72;;;2.67;;
71366;SDS011;60030;52.274;8.040;2023-04-22T11:28:02;2.78;;;2.40;;
71366;SDS011;60030;52.274;8.040;2023-04-22T11:30:29;2.85;;;2.58;;
71366;SDS011;60030;52.274;8.040;2023-04-22T11:32:57;3.63;;;2.50;;
71366;SDS011;60030;52.274;8.040;2023-04-22T11:35:26;3.30;;;2.33;;
71366;SDS011;60030;52.274;8.040;2023-04-22T11:37:57;2.30;;;1.77;;
71366;SDS011;60030;52.274;8.040;2023-04-22T11:40:26;3.78;;;2.10;;
71366;SDS011;60030;52.274;8.040;2023-04-22T11:42:55;3.25;;;2.05;;
71366;SDS011;60030;52.274;8.040;2023-04-22T11:45:23;2.95;;;2.20;;
71366;SDS011;60030;52.274;8.040;2023-04-22T11:47:51;2.95;;;2.65;;
71366;SDS011;60030;52.274;8.040;2023-04-22T11:50:20;4.25;;;2.00;;
71366;SDS011;60030;52.274;8.040;2023-04-22T11:52:49;3.47;;;2.38;;
71366;SDS011;60030;52.274;8.040;2023-04-22T11:55:20;2.03;;;1.83;;
71366;SDS011;60030;52.274;8.040;2023-04-22T11:57:53;2.10;;;1.73;;
71366;SDS011;60030;52.274;8.040;2023-04-22T12:00:22;3.25;;;1.90;;
71366;SDS011;60030;52.274;8.040;2023-04-22T12:02:57;3.30;;;1.85;;
71366;SDS011;60030;52.274;8.040;2023-04-22T12:05:31;2.20;;;1.75;;
71366;SDS011;60030;52.274;8.040;2023-04-22T12:08:03;1.95;;;1.80;;
71366;SDS011;60030;52.274;8.040;2023-04-22T12:10:37;3.65;;;2.10;;
71366;SDS011;60030;52.274;8.040;2023-04-22T12:13:06;3.72;;;1.88;;
71366;SDS011;60030;52.274;8.040;2023-04-22T12:15:40;3.38;;;2.03;;
71366;SDS011;60030;52.274;8.040;2023-04-22T12:18:08;2.30;;;1.70;;
71366;SDS011;60030;52.274;8.040;2023-04-22T12:20:37;2.97;;;2.13;;
71366;SDS011;60030;52.274;8.040;2023-04-22T12:23:10;5.70;;;2.10;;
71366;SDS011;60030;52.274;8.040;2023-04-22T12:25:40;1.95;;;1.73;;
71366;SDS011;60030;52.274;8.040;2023-04-22T12:28:07;2.40;;;1.80;;
71366;SDS011;60030;52.274;8.040;2023-04-22T12:30:35;3.30;;;1.77;;
71366;SDS011;60030;52.274;8.040;2023-04-22T12:33:02;2.90;;;1.65;;
71366;SDS011;60030;52.274;8.040;2023-04-22T12:35:30;2.30;;;2.10;;
71366;SDS011;60030;52.274;8.040;2023-04-22T12:37:57;2.15;;;1.80;;
71366;SDS011;60030;52.274;8.040;2023-04-22T12:40:25;3.40;;;2.00;;
71366;SDS011;60030;52.274;8.040;2023-04-22T12:42:53;3.03;;;2.20;;
71366;SDS011;60030;52.274;8.040;2023-04-22T12:45:20;3.20;;;1.85;;
71366;SDS011;60030;52.274;8.040;2023-04-22T12:47:49;4.95;;;1.83;;
71366;SDS011;60030;52.274;8.040;2023-04-22T12:50:18;2.80;;;1.98;;
71366;SDS011;60030;52.274;8.040;2023-04-22T12:52:45;2.72;;;1.80;;
71366;SDS011;60030;52.274;8.040;2023-04-22T12:55:12;2.35;;;1.73;;
71366;SDS011;60030;52.274;8.040;2023-04-22T12:57:41;3.42;;;1.80;;
71366;SDS011;60030;52.274;8.040;2023-04-22T13:00:10;5.18;;;2.10;;
71366;SDS011;60030;52.274;8.040;2023-04-22T13:02:39;2.78;;;1.80;;
71366;SDS011;60030;52.274;8.040;2023-04-22T13:05:09;1.90;;;1.60;;
71366;SDS011;60030;52.274;8.040;2023-04-22T13:07:37;2.50;;;2.08;;
71366;SDS011;60030;52.274;8.040;2023-04-22T13:10:06;2.35;;;1.73;;
71366;SDS011;60030;52.274;8.040;2023-04-22T13:12:37;2.72;;;2.00;;
71366;SDS011;60030;52.274;8.040;2023-04-22T13:15:05;2.20;;;1.83;;
71366;SDS011;60030;52.274;8.040;2023-04-22T13:17:34;2.28;;;1.73;;
71366;SDS011;60030;52.274;8.040;2023-04-22T13:20:02;2.13;;;1.92;;
71366;SDS011;60030;52.274;8.040;2023-04-22T13:22:31;2.97;;;1.90;;
71366;SDS011;60030;52.274;8.040;2023-04-22T13:24:59;7.03;;;1.90;;
71366;SDS011;60030;52.274;8.040;2023-04-22T13:27:26;3.05;;;2.20;;
71366;SDS011;60030;52.274;8.040;2023-04-22T13:29:53;2.95;;;1.92;;
71366;SDS011;60030;52.274;8.040;2023-04-22T13:32:20;3.50;;;1.70;;
71366;SDS011;60030;52.274;8.040;2023-04-22T13:34:48;3.22;;;1.95;;
71366;SDS011;60030;52.274;8.040;2023-04-22T13:37:15;5.25;;;2.70;;
71366;SDS011;60030;52.274;8.040;2023-04-22T13:39:44;3.42;;;2.05;;
71366;SDS011;60030;52.274;8.040;2023-04-22T13:42:12;6.20;;;2.80;;
71366;SDS011;60030;52.274;8.040;2023-04-22T13:44:39;2.63;;;2.20;;
71366;SDS011;60030;52.274;8.040;2023-04-22T13:47:06;3.65;;;2.83;;
71366;SDS011;60030;52.274;8.040;2023-04-22T13:49:33;3.53;;;3.22;;
71366;SDS011;60030;52.274;8.040;2023-04-22T13:52:02;4.55;;;2.47;;
71366;SDS011;60030;52.274;8.040;2023-04-22T13:54:29;2.63;;;1.92;;
71366;SDS011;60030;52.274;8.040;2023-04-22T13:56:56;3.72;;;1.80;;
71366;SDS011;60030;52.274;8.040;2023-04-22T13:59:23;5.05;;;2.05;;
71366;SDS011;60030;52.274;8.040;2023-04-22T14:01:50;3.40;;;2.20;;
71366;SDS011;60030;52.274;8.040;2023-04-22T14:04:17;1.90;;;1.67;;
71366;SDS011;60030;52.274;8.040;2023-04-22T14:06:45;2.88;;;1.67;;
71366;SDS011;60030;52.274;8.040;2023-04-22T14:09:13;3.53;;;2.10;;
71366;SDS011;60030;52.274;8.040;2023-04-22T14:11:42;2.70;;;2.20;;
71366;SDS011;60030;52.274;8.040;2023-04-22T14:14:09;2.35;;;1.85;;
71366;SDS011;60030;52.274;8.040;2023-04-22T14:16:36;3.08;;;1.83;;
71366;SDS011;60030;52.274;8.040;2023-04-22T14:19:03;2.58;;;2.10;;
71366;SDS011;60030;52.274;8.040;2023-04-22T14:21:30;3.45;;;2.10;;
71366;SDS011;60030;52.274;8.040;2023-04-22T14:23:57;2.10;;;1.85;;
71366;SDS011;60030;52.274;8.040;2023-04-22T14:26:25;2.50;;;1.98;;
71366;SDS011;60030;52.274;8.040;2023-04-22T14:28:52;2.50;;;1.92;;
71366;SDS011;60030;52.274;8.040;2023-04-22T14:31:19;2.50;;;2.30;;
71366;SDS011;60030;52.274;8.040;2023-04-22T14:33:48;3.75;;;1.73;;
71366;SDS011;60030;52.274;8.040;2023-04-22T14:36:16;4.78;;;2.10;;
71366;SDS011;60030;52.274;8.040;2023-04-22T14:38:43;3.45;;;2.20;;
71366;SDS011;60030;52.274;8.040;2023-04-22T14:41:10;2.10;;;1.90;;
71366;SDS011;60030;52.274;8.040;2023-04-22T14:43:39;6.75;;;2.30;;
71366;SDS011;60030;52.274;8.040;2023-04-22T14:46:06;2.67;;;2.20;;
71366;SDS011;60030;52.274;8.040;2023-04-22T14:48:33;5.47;;;2.05;;
71366;SDS011;60030;52.274;8.040;2023-04-22T14:51:00;5.25;;;3.08;;
71366;SDS011;60030;52.274;8.040;2023-04-22T14:53:28;3.08;;;2.25;;
71366;SDS011;60030;52.274;8.040;2023-04-22T14:55:55;4.30;;;2.25;;
71366;SDS011;60030;52.274;8.040;2023-04-22T14:58:22;3.03;;;2.72;;
71366;SDS011;60030;52.274;8.040;2023-04-22T15:00:52;4.07;;;2.30;;